Time;durP1;ratioP1;P1;durP2;ratioP2;P2;SDS_P1;SDS_P2;PMS_P1;PMS_P2;Temp;Humidity;BMP_temperature;BMP_pressure;BME280_temperature;BME280_humidity;BME280_pressure;Samples;Min_cycle;Max_cycle;Signal;HPM_P1;HPM_P2
2022/12/17 13:07:32;;;;;;;5.03;2.50;;;;;;;;;;5110397;28;20058;-71
2022/12/17 13:09:58;;;;;;;3.85;2.38;;;;;;;;;;5110475;28;20432;-71
2022/12/17 13:12:31;;;;;;;5.07;2.10;;;;;;;;;;5110378;28;20039;-70
2022/12/17 13:15:05;;;;;;;3.85;2.17;;;;;;;;;;5110586;28;20502;-70
2022/12/17 13:17:54;;;;;;;3.40;1.98;;;;;;;;;;5099465;28;20031;-71
2022/12/17 13:20:24;;;;;;;3.83;2.25;;;;;;;;;;5110555;28;20024;-70
2022/12/17 13:22:51;;;;;;;;;;;;;;;;;;5116443;28;20036;-71
2022/12/17 13:25:20;;;;;;;3.13;1.90;;;;;;;;;;5119649;28;19907;-72
2022/12/17 13:27:46;;;;;;;3.38;2.15;;;;;;;;;;5116404;28;20622;-69
2022/12/17 13:30:31;;;;;;;3.10;1.92;;;;;;;;;;5111580;28;20354;-72
2022/12/17 13:33:28;;;;;;;2.92;2.00;;;;;;;;;;5111645;28;20103;-69
2022/12/17 13:36:14;;;;;;;3.15;1.80;;;;;;;;;;5119754;28;20035;-71
2022/12/17 13:38:59;;;;;;;3.25;2.22;;;;;;;;;;5112647;28;20023;-70
2022/12/17 13:41:30;;;;;;;4.25;2.00;;;;;;;;;;5065613;28;20342;-71
2022/12/17 13:44:00;;;;;;;4.47;2.33;;;;;;;;;;5114747;28;20323;-69
2022/12/17 13:46:27;;;;;;;4.25;2.28;;;;;;;;;;5112887;28;20046;-69
2022/12/17 13:48:58;;;;;;;3.67;2.25;;;;;;;;;;5125211;28;20036;-69
2022/12/17 13:51:24;;;;;;;;;;;;;;;;;;5119362;28;20028;-68
2022/12/17 13:53:59;;;;;;;3.83;2.10;;;;;;;;;;5123458;28;19907;-68
2022/12/17 13:56:32;;;;;;;3.13;1.70;;;;;;;;;;5125232;28;20024;-68
2022/12/17 13:59:01;;;;;;;4.00;2.08;;;;;;;;;;5124726;27;20020;-70
2022/12/17 14:01:27;;;;;;;6.75;2.95;;;;;;;;;;5125050;28;20078;-68
2022/12/17 14:03:55;;;;;;;12.35;5.85;;;;;;;;;;5124910;28;20170;-68
2022/12/17 14:06:23;;;;;;;6.20;3.25;;;;;;;;;;5125017;28;20031;-70
2022/12/17 14:08:51;;;;;;;4.13;2.28;;;;;;;;;;5124763;28;20019;-68
2022/12/17 14:14:01;;;;;;;4.30;1.80;;;;;;;;;;5124539;28;20028;-68
2022/12/17 14:16:28;;;;;;;6.20;2.50;;;;;;;;;;5124466;28;20027;-68
2022/12/17 14:18:57;;;;;;;4.63;2.53;;;;;;;;;;5124610;28;20031;-68
2022/12/17 14:21:24;;;;;;;4.95;2.30;;;;;;;;;;5124544;28;20024;-68
2022/12/17 14:23:51;;;;;;;2.88;1.80;;;;;;;;;;5124466;28;20319;-69
2022/12/17 14:26:17;;;;;;;4.68;2.03;;;;;;;;;;5124674;28;20371;-68
2022/12/17 14:28:51;;;;;;;5.28;2.63;;;;;;;;;;5123951;28;20034;-69
2022/12/17 14:31:18;;;;;;;3.85;2.05;;;;;;;;;;5123433;28;20159;-70
2022/12/17 14:33:44;;;;;;;3.55;2.05;;;;;;;;;;5123389;28;20208;-69
2022/12/17 14:36:16;;;;;;;4.07;2.03;;;;;;;;;;5122893;28;20337;-70
2022/12/17 14:38:57;;;;;;;3.22;2.20;;;;;;;;;;5121030;28;20036;-68
2022/12/17 14:44:20;;;;;;;4.90;2.65;;;;;;;;;;5110771;28;20544;-69
2022/12/17 14:46:45;;;;;;;3.55;2.13;;;;;;;;;;5112065;28;20572;-71
2022/12/17 14:49:16;;;;;;;5.00;2.50;;;;;;;;;;5112218;28;20035;-68
2022/12/17 14:51:41;;;;;;;;;;;;;;;;;;5113199;28;20068;-68
2022/12/17 14:54:24;;;;;;;3.63;2.35;;;;;;;;;;5112256;28;19911;-68
2022/12/17 14:56:51;;;;;;;3.08;1.85;;;;;;;;;;5112369;28;20484;-68
2022/12/17 14:59:30;;;;;;;3.75;2.47;;;;;;;;;;5112147;28;20108;-70
2022/12/17 15:01:55;;;;;;;4.13;2.58;;;;;;;;;;5112736;28;20130;-69
2022/12/17 15:04:21;;;;;;;3.65;2.30;;;;;;;;;;5112430;28;20547;-68
2022/12/17 15:06:48;;;;;;;4.00;2.40;;;;;;;;;;5094050;28;20032;-70
2022/12/17 15:09:13;;;;;;;4.03;2.55;;;;;;;;;;5112201;28;20065;-70
2022/12/17 15:11:39;;;;;;;4.15;2.40;;;;;;;;;;5112302;28;20054;-71
2022/12/17 15:14:04;;;;;;;9.60;5.50;;;;;;;;;;5111893;28;20063;-70
2022/12/17 15:16:30;;;;;;;5.68;2.70;;;;;;;;;;5112582;28;20028;-70
2022/12/17 15:18:56;;;;;;;4.50;2.58;;;;;;;;;;5112274;28;20028;-68
2022/12/17 15:21:23;;;;;;;4.53;2.75;;;;;;;;;;5112499;28;20416;-70
2022/12/17 15:23:48;;;;;;;5.03;2.85;;;;;;;;;;5111824;28;20403;-70
2022/12/17 15:26:14;;;;;;;5.50;3.03;;;;;;;;;;5112125;28;20028;-69
2022/12/17 15:28:40;;;;;;;5.47;3.20;;;;;;;;;;5111643;28;20027;-70
2022/12/17 15:31:11;;;;;;;5.43;3.00;;;;;;;;;;5111877;28;20035;-70
2022/12/17 15:33:36;;;;;;;4.65;2.83;;;;;;;;;;5111620;28;20547;-70
2022/12/17 15:36:02;;;;;;;5.20;2.92;;;;;;;;;;5111909;28;20118;-69
2022/12/17 15:38:28;;;;;;;5.80;3.10;;;;;;;;;;5111955;28;20027;-68
2022/12/17 15:40:53;;;;;;;6.10;3.15;;;;;;;;;;5111592;28;20110;-69
2022/12/17 15:43:18;;;;;;;4.47;2.85;;;;;;;;;;5111616;28;20123;-71
2022/12/17 15:45:47;;;;;;;6.05;3.28;;;;;;;;;;5111321;28;20050;-69
2022/12/17 15:48:15;;;;;;;7.28;3.83;;;;;;;;;;5111545;28;20023;-70
2022/12/17 15:50:40;;;;;;;6.85;3.80;;;;;;;;;;5111353;28;20028;-68
2022/12/17 15:53:06;;;;;;;6.30;4.00;;;;;;;;;;5111595;28;20030;-68
2022/12/17 15:55:32;;;;;;;6.22;3.55;;;;;;;;;;5111340;28;20019;-71
2022/12/17 15:57:57;;;;;;;8.05;3.90;;;;;;;;;;5093047;28;20055;-68
2022/12/17 16:00:23;;;;;;;6.07;3.83;;;;;;;;;;5111300;28;20020;-71
2022/12/17 16:02:49;;;;;;;6.88;3.90;;;;;;;;;;5111455;28;20421;-70
2022/12/17 16:05:15;;;;;;;8.57;4.00;;;;;;;;;;5111052;28;20405;-70
2022/12/17 16:07:42;;;;;;;10.20;5.80;;;;;;;;;;5110765;28;20055;-70
2022/12/17 16:10:09;;;;;;;10.05;5.78;;;;;;;;;;5111054;28;20088;-70
2022/12/17 16:12:34;;;;;;;12.25;5.90;;;;;;;;;;5111350;28;20024;-71
2022/12/17 16:15:01;;;;;;;7.00;4.13;;;;;;;;;;5110881;28;20068;-70
2022/12/17 16:17:26;;;;;;;5.60;3.60;;;;;;;;;;5111346;28;20027;-70
2022/12/17 16:19:52;;;;;;;5.13;2.90;;;;;;;;;;5110934;28;20024;-68
2022/12/17 16:22:17;;;;;;;4.80;3.25;;;;;;;;;;5092903;28;20047;-68
2022/12/17 16:24:43;;;;;;;6.22;3.88;;;;;;;;;;5110702;28;20024;-69
2022/12/17 16:27:08;;;;;;;5.93;4.10;;;;;;;;;;5111298;28;20023;-69
2022/12/17 16:29:34;;;;;;;8.98;3.90;;;;;;;;;;5110725;28;20028;-68
2022/12/17 16:32:00;;;;;;;7.32;4.10;;;;;;;;;;5111312;28;20020;-68
2022/12/17 16:34:26;;;;;;;6.10;3.78;;;;;;;;;;5110667;28;20020;-69
2022/12/17 16:36:52;;;;;;;6.28;3.75;;;;;;;;;;5110865;28;20022;-69
2022/12/17 16:39:18;;;;;;;5.80;3.38;;;;;;;;;;5110717;28;20020;-71
2022/12/17 16:41:45;;;;;;;5.78;3.28;;;;;;;;;;5110771;28;20102;-69
2022/12/17 16:44:11;;;;;;;4.78;3.08;;;;;;;;;;5110511;28;20028;-70
2022/12/17 16:46:40;;;;;;;5.55;3.20;;;;;;;;;;5110607;28;20453;-69
2022/12/17 16:49:12;;;;;;;5.20;3.13;;;;;;;;;;5111082;28;20102;-68
2022/12/17 16:51:39;;;;;;;4.55;2.92;;;;;;;;;;5110603;28;20083;-69
2022/12/17 16:54:15;;;;;;;4.88;3.10;;;;;;;;;;5110763;28;20035;-68
2022/12/17 16:56:43;;;;;;;5.40;3.13;;;;;;;;;;5110338;28;20054;-68
2022/12/17 16:59:10;;;;;;;6.38;3.70;;;;;;;;;;5110584;28;20111;-68
2022/12/17 17:01:37;;;;;;;7.38;3.97;;;;;;;;;;5110472;28;20024;-68
2022/12/17 17:04:08;;;;;;;7.05;4.53;;;;;;;;;;5110596;28;20059;-68
2022/12/17 17:06:43;;;;;;;6.65;4.00;;;;;;;;;;5092085;28;20033;-68
2022/12/17 17:09:09;;;;;;;5.78;4.05;;;;;;;;;;5110725;28;20031;-68
2022/12/17 17:11:35;;;;;;;7.30;4.07;;;;;;;;;;5110247;28;20023;-68
2022/12/17 17:14:01;;;;;;;6.97;4.43;;;;;;;;;;5110236;28;20572;-68
2022/12/17 17:16:27;;;;;;;7.72;4.47;;;;;;;;;;5110115;28;20030;-68
2022/12/17 17:18:53;;;;;;;7.40;4.60;;;;;;;;;;5111724;28;20027;-68
2022/12/17 17:21:19;;;;;;;8.57;4.88;;;;;;;;;;5114480;28;20031;-68
2022/12/17 17:24:22;;;;;;;7.60;4.50;;;;;;;;;;5114431;28;20028;-68
2022/12/17 17:26:50;;;;;;;7.22;4.13;;;;;;;;;;5093019;28;20105;-68
2022/12/17 17:29:15;;;;;;;7.53;4.30;;;;;;;;;;5114252;28;20030;-68
2022/12/17 17:31:41;;;;;;;6.90;4.47;;;;;;;;;;5113965;28;20114;-68
2022/12/17 17:34:09;;;;;;;7.80;4.45;;;;;;;;;;5114049;28;20667;-68
2022/12/17 17:36:35;;;;;;;5.63;3.95;;;;;;;;;;5114402;28;20027;-68
2022/12/17 17:39:01;;;;;;;5.75;3.65;;;;;;;;;;5114392;28;20076;-68
2022/12/17 17:41:29;;;;;;;6.63;3.67;;;;;;;;;;5114078;28;20030;-68
2022/12/17 17:44:02;;;;;;;6.95;4.00;;;;;;;;;;5095649;28;20240;-68
2022/12/17 17:46:29;;;;;;;6.32;4.20;;;;;;;;;;5113812;28;20126;-68
2022/12/17 17:48:56;;;;;;;9.55;5.10;;;;;;;;;;5113692;28;20027;-68
2022/12/17 17:51:24;;;;;;;7.35;4.78;;;;;;;;;;5096541;28;20034;-68
2022/12/17 17:53:51;;;;;;;7.78;4.70;;;;;;;;;;5116147;28;20467;-68
2022/12/17 17:56:19;;;;;;;9.25;5.40;;;;;;;;;;5113594;28;20051;-69
2022/12/17 17:58:51;;;;;;;8.48;5.43;;;;;;;;;;5116027;28;20570;-69
2022/12/17 18:01:19;;;;;;;10.55;5.38;;;;;;;;;;5119529;28;20027;-70
2022/12/17 18:03:45;;;;;;;8.93;5.45;;;;;;;;;;5115829;28;20035;-70
2022/12/17 18:06:15;;;;;;;7.93;5.00;;;;;;;;;;5115967;28;20035;-71
2022/12/17 18:08:41;;;;;;;10.75;6.50;;;;;;;;;;5116061;28;20035;-69
2022/12/17 18:11:13;;;;;;;13.15;7.38;;;;;;;;;;5120523;28;20039;-69
2022/12/17 18:13:54;;;;;;;11.40;6.38;;;;;;;;;;5115882;28;20034;-68
2022/12/17 18:16:40;;;;;;;13.48;7.68;;;;;;;;;;5117267;28;20027;-69
2022/12/17 18:19:20;;;;;;;12.52;7.35;;;;;;;;;;5115871;28;20116;-68
2022/12/17 18:21:46;;;;;;;12.68;6.82;;;;;;;;;;5123052;28;20035;-70
2022/12/17 18:24:21;;;;;;;11.73;6.53;;;;;;;;;;5123547;28;20027;-71
2022/12/17 18:26:47;;;;;;;11.15;6.88;;;;;;;;;;5118014;28;20471;-70
2022/12/17 18:29:14;;;;;;;12.35;6.95;;;;;;;;;;5115067;28;20213;-70
2022/12/17 18:31:39;;;;;;;19.63;8.68;;;;;;;;;;5117538;28;20030;-71
2022/12/17 18:34:06;;;;;;;15.23;9.05;;;;;;;;;;5122561;28;20027;-69
2022/12/17 18:36:38;;;;;;;13.32;7.40;;;;;;;;;;5124395;28;20019;-69
2022/12/17 18:39:06;;;;;;;9.73;5.35;;;;;;;;;;5116794;28;20088;-69
2022/12/17 18:44:16;;;;;;;9.25;5.97;;;;;;;;;;5121579;28;20143;-69
2022/12/17 18:46:43;;;;;;;8.02;5.43;;;;;;;;;;5122403;28;20067;-69
2022/12/17 18:49:10;;;;;;;9.40;5.53;;;;;;;;;;5122667;28;20024;-69
2022/12/17 18:51:38;;;;;;;12.68;6.88;;;;;;;;;;5122719;28;20020;-69
2022/12/17 18:54:08;;;;;;;10.90;6.20;;;;;;;;;;5123321;28;20335;-72
2022/12/17 18:56:36;;;;;;;7.90;4.93;;;;;;;;;;5123103;28;20028;-70
2022/12/17 18:59:02;;;;;;;8.35;5.15;;;;;;;;;;5122753;28;20031;-72
2022/12/17 19:01:30;;;;;;;9.30;5.40;;;;;;;;;;5122683;28;20104;-69
2022/12/17 19:03:56;;;;;;;7.57;5.00;;;;;;;;;;5122608;28;20061;-69
2022/12/17 19:06:23;;;;;;;9.93;5.43;;;;;;;;;;5104187;28;20016;-71
2022/12/17 19:08:50;;;;;;;7.80;4.32;;;;;;;;;;5123481;28;20055;-71
2022/12/17 19:11:18;;;;;;;7.18;4.72;;;;;;;;;;5123019;28;20033;-70
2022/12/17 19:13:44;;;;;;;6.22;3.92;;;;;;;;;;5117272;28;20023;-72
2022/12/17 19:16:12;;;;;;;8.30;4.65;;;;;;;;;;5112123;28;20019;-71
2022/12/17 19:18:38;;;;;;;12.20;5.72;;;;;;;;;;5113129;28;20031;-68
2022/12/17 19:21:05;;;;;;;10.13;4.82;;;;;;;;;;5110592;28;20031;-69
2022/12/17 19:23:31;;;;;;;7.55;4.22;;;;;;;;;;5117855;28;20019;-69
2022/12/17 19:26:04;;;;;;;7.30;4.15;;;;;;;;;;5123346;28;20019;-68
2022/12/17 19:28:30;;;;;;;5.85;3.85;;;;;;;;;;5123171;28;20031;-69
2022/12/17 19:30:56;;;;;;;5.55;3.40;;;;;;;;;;5111273;28;20053;-71
2022/12/17 19:33:22;;;;;;;7.15;3.75;;;;;;;;;;5110766;28;20126;-74
2022/12/17 19:35:47;;;;;;;6.40;3.88;;;;;;;;;;5111681;28;20055;-72
2022/12/17 19:38:12;;;;;;;6.82;4.22;;;;;;;;;;5111222;28;20078;-71
2022/12/17 19:40:38;;;;;;;7.53;4.15;;;;;;;;;;5110693;28;20567;-70
2022/12/17 19:43:03;;;;;;;6.35;4.07;;;;;;;;;;5111027;28;20036;-70
2022/12/17 19:45:30;;;;;;;8.48;4.68;;;;;;;;;;5110576;28;20024;-69
2022/12/17 19:47:56;;;;;;;7.40;4.40;;;;;;;;;;5115955;28;20035;-70
2022/12/17 19:50:21;;;;;;;8.05;4.40;;;;;;;;;;5122933;28;20023;-71
2022/12/17 19:52:46;;;;;;;8.73;4.97;;;;;;;;;;5122814;28;20090;-68
2022/12/17 19:55:12;;;;;;;7.25;4.90;;;;;;;;;;5122727;28;20035;-69
2022/12/17 19:57:38;;;;;;;9.07;4.57;;;;;;;;;;5104469;28;20041;-70
2022/12/17 20:00:04;;;;;;;8.25;4.88;;;;;;;;;;5123037;28;20019;-70
2022/12/17 20:02:29;;;;;;;6.22;4.10;;;;;;;;;;5122546;28;20061;-69
2022/12/17 20:04:54;;;;;;;7.85;4.10;;;;;;;;;;5122831;28;20035;-71
2022/12/17 20:07:20;;;;;;;7.45;3.88;;;;;;;;;;5122578;28;20023;-68
2022/12/17 20:09:45;;;;;;;5.50;3.33;;;;;;;;;;5121976;28;20375;-68
2022/12/17 20:12:11;;;;;;;6.70;3.78;;;;;;;;;;5122242;28;20058;-69
2022/12/17 20:14:37;;;;;;;5.45;3.75;;;;;;;;;;5122402;28;20308;-67
2022/12/17 20:17:03;;;;;;;6.53;3.80;;;;;;;;;;5121374;28;20028;-69
2022/12/17 20:19:30;;;;;;;7.38;3.78;;;;;;;;;;5122268;28;20025;-69
2022/12/17 20:21:57;;;;;;;7.78;4.10;;;;;;;;;;5122443;28;20028;-70
2022/12/17 20:24:23;;;;;;;7.35;4.38;;;;;;;;;;5122305;28;20031;-69
2022/12/17 20:26:50;;;;;;;8.63;4.72;;;;;;;;;;5122106;28;20063;-69
2022/12/17 20:29:18;;;;;;;6.75;4.18;;;;;;;;;;5121939;28;20035;-70
2022/12/17 20:31:44;;;;;;;5.15;3.67;;;;;;;;;;5122450;28;20032;-69
2022/12/17 20:34:12;;;;;;;7.25;3.80;;;;;;;;;;5121986;28;20091;-69
2022/12/17 20:36:39;;;;;;;6.68;3.63;;;;;;;;;;5103842;28;20027;-69
2022/12/17 20:39:05;;;;;;;5.13;3.03;;;;;;;;;;5121869;28;20090;-69
2022/12/17 20:41:31;;;;;;;5.22;3.20;;;;;;;;;;5122169;28;20316;-69
2022/12/17 20:44:01;;;;;;;5.28;3.40;;;;;;;;;;5122091;28;20032;-70
2022/12/17 20:46:26;;;;;;;5.78;3.38;;;;;;;;;;5121832;28;20051;-68
2022/12/17 20:48:52;;;;;;;6.90;4.00;;;;;;;;;;5122026;28;20020;-69
2022/12/17 20:51:20;;;;;;;6.85;4.10;;;;;;;;;;5121957;28;20023;-69
2022/12/17 20:53:46;;;;;;;7.00;4.10;;;;;;;;;;5123584;28;20020;-69
2022/12/17 20:56:14;;;;;;;8.50;4.38;;;;;;;;;;5126221;28;20078;-69
2022/12/17 20:58:40;;;;;;;7.50;4.60;;;;;;;;;;5125766;28;20077;-69
2022/12/17 21:01:18;;;;;;;7.90;4.25;;;;;;;;;;5108132;28;20091;-69
2022/12/17 21:03:44;;;;;;;7.88;5.00;;;;;;;;;;5125752;28;20027;-70
2022/12/17 21:06:23;;;;;;;9.77;5.40;;;;;;;;;;5125927;28;20019;-70
2022/12/17 21:08:50;;;;;;;11.80;5.95;;;;;;;;;;5125957;28;20354;-69
2022/12/17 21:11:18;;;;;;;9.25;5.07;;;;;;;;;;5126291;28;20015;-69
2022/12/17 21:13:44;;;;;;;10.50;5.35;;;;;;;;;;5125824;28;20027;-69
2022/12/17 21:16:12;;;;;;;8.32;5.10;;;;;;;;;;5125452;28;20159;-69
2022/12/17 21:18:38;;;;;;;10.50;5.50;;;;;;;;;;5113439;28;20035;-68
2022/12/17 21:21:06;;;;;;;11.45;6.10;;;;;;;;;;5125856;28;20363;-69
2022/12/17 21:23:32;;;;;;;12.10;5.60;;;;;;;;;;5125846;28;20027;-69
2022/12/17 21:26:04;;;;;;;14.32;6.38;;;;;;;;;;5107285;28;20390;-69
2022/12/17 21:28:31;;;;;;;10.73;5.60;;;;;;;;;;5125313;28;20042;-69
2022/12/17 21:30:56;;;;;;;11.52;6.03;;;;;;;;;;5125681;28;20061;-70
2022/12/17 21:33:22;;;;;;;11.95;5.65;;;;;;;;;;5125488;28;20242;-69
2022/12/17 21:35:48;;;;;;;11.18;6.10;;;;;;;;;;5124892;28;20020;-69
2022/12/17 21:38:14;;;;;;;9.30;5.55;;;;;;;;;;5124597;28;20039;-69
2022/12/17 21:40:40;;;;;;;11.00;5.93;;;;;;;;;;5122144;28;20031;-69
2022/12/17 21:43:06;;;;;;;9.60;5.28;;;;;;;;;;5121857;28;20035;-68
2022/12/17 21:45:39;;;;;;;6.70;4.13;;;;;;;;;;5124138;28;20094;-69
2022/12/17 21:48:06;;;;;;;7.82;4.10;;;;;;;;;;5124558;28;20315;-70
2022/12/17 21:50:32;;;;;;;7.57;3.85;;;;;;;;;;5125171;28;20279;-69
2022/12/17 21:52:58;;;;;;;6.25;4.05;;;;;;;;;;5120920;28;20043;-69
2022/12/17 21:55:24;;;;;;;8.23;3.75;;;;;;;;;;5114406;28;20034;-69
2022/12/17 21:57:50;;;;;;;7.45;3.72;;;;;;;;;;5115153;28;20037;-69
2022/12/17 22:00:16;;;;;;;6.72;4.18;;;;;;;;;;5119926;28;20098;-70
2022/12/17 22:02:41;;;;;;;5.72;3.67;;;;;;;;;;5124722;28;20023;-70
2022/12/17 22:05:07;;;;;;;5.95;4.00;;;;;;;;;;5124248;28;20051;-69
2022/12/17 22:07:32;;;;;;;5.78;3.80;;;;;;;;;;5124888;28;20035;-69
2022/12/17 22:09:58;;;;;;;6.07;3.72;;;;;;;;;;5123812;28;20027;-69
2022/12/17 22:15:09;;;;;;;6.80;4.07;;;;;;;;;;5123966;28;20066;-69
2022/12/17 22:17:35;;;;;;;7.05;4.00;;;;;;;;;;5123713;28;20035;-70
2022/12/17 22:20:01;;;;;;;7.85;4.30;;;;;;;;;;5123399;28;20036;-70
2022/12/17 22:22:26;;;;;;;5.85;4.00;;;;;;;;;;5124322;28;20128;-69
2022/12/17 22:24:52;;;;;;;7.57;4.13;;;;;;;;;;5123788;28;20235;-69
2022/12/17 22:27:17;;;;;;;7.15;3.97;;;;;;;;;;5115507;28;20084;-69
2022/12/17 22:35:11;;;;;;;6.45;4.00;;;;;;;;;;5124452;28;20026;-69
2022/12/17 22:37:36;;;;;;;7.40;4.18;;;;;;;;;;5124554;28;20024;-70
2022/12/17 22:40:01;;;;;;;7.40;4.07;;;;;;;;;;5124143;28;20055;-70
2022/12/17 22:45:11;;;;;;;5.65;3.80;;;;;;;;;;5124320;28;20333;-69
2022/12/17 22:47:36;;;;;;;6.38;3.88;;;;;;;;;;5123399;28;20039;-68
2022/12/17 22:50:01;;;;;;;5.43;3.65;;;;;;;;;;5122691;28;20055;-70
2022/12/17 22:52:27;;;;;;;7.65;3.78;;;;;;;;;;5124433;28;20022;-69
2022/12/17 22:54:52;;;;;;;6.05;3.60;;;;;;;;;;5124043;28;20025;-68
2022/12/17 22:57:18;;;;;;;5.78;3.78;;;;;;;;;;5123888;28;20326;-69
2022/12/17 22:59:43;;;;;;;6.20;3.80;;;;;;;;;;5123972;28;20023;-68
2022/12/17 23:02:10;;;;;;;5.95;3.70;;;;;;;;;;5121586;28;20031;-68
2022/12/17 23:04:35;;;;;;;5.43;3.47;;;;;;;;;;5124005;28;20031;-69
2022/12/17 23:07:01;;;;;;;4.93;3.65;;;;;;;;;;5120518;28;20015;-69
2022/12/17 23:09:26;;;;;;;6.25;3.90;;;;;;;;;;5115865;28;20375;-67
2022/12/17 23:11:52;;;;;;;6.60;4.07;;;;;;;;;;5119447;28;20090;-67
2022/12/17 23:14:17;;;;;;;11.07;6.57;;;;;;;;;;5120415;28;20062;-68
2022/12/17 23:16:43;;;;;;;11.45;7.00;;;;;;;;;;5112282;28;20023;-68
2022/12/17 23:19:09;;;;;;;12.23;8.02;;;;;;;;;;5116406;28;20046;-68
2022/12/17 23:21:35;;;;;;;13.13;8.18;;;;;;;;;;5121638;28;20034;-68
2022/12/17 23:24:01;;;;;;;12.77;8.00;;;;;;;;;;5115079;28;20020;-67
2022/12/17 23:26:32;;;;;;;14.57;7.78;;;;;;;;;;5116800;28;20027;-68
2022/12/17 23:29:00;;;;;;;14.63;7.88;;;;;;;;;;5122528;28;20031;-68
2022/12/17 23:31:31;;;;;;;13.05;7.60;;;;;;;;;;5122538;28;20076;-67
2022/12/17 23:33:57;;;;;;;14.52;7.93;;;;;;;;;;5123621;28;20056;-67
2022/12/17 23:36:24;;;;;;;16.70;8.27;;;;;;;;;;5115478;28;20070;-67
2022/12/17 23:38:51;;;;;;;14.73;7.78;;;;;;;;;;5122114;28;20027;-67
2022/12/17 23:41:21;;;;;;;13.18;7.25;;;;;;;;;;5111733;28;20024;-67
2022/12/17 23:43:48;;;;;;;12.50;7.78;;;;;;;;;;5118414;28;20049;-67
2022/12/17 23:46:15;;;;;;;15.05;8.20;;;;;;;;;;5121920;28;20051;-67
2022/12/17 23:48:42;;;;;;;14.68;8.40;;;;;;;;;;5121987;28;20327;-67
2022/12/17 23:51:09;;;;;;;13.38;7.93;;;;;;;;;;5121631;28;20043;-67
2022/12/17 23:53:35;;;;;;;14.25;8.27;;;;;;;;;;5118832;28;20031;-67
2022/12/17 23:56:07;;;;;;;14.43;8.07;;;;;;;;;;5114960;28;20425;-67
2022/12/17 23:58:34;;;;;;;12.52;7.75;;;;;;;;;;5119867;28;20315;-67
